Time;durP1;ratioP1;P1;durP2;ratioP2;P2;SDS_P1;SDS_P2;PMS_P1;PMS_P2;Temp;Humidity;BMP_temperature;BMP_pressure;BME280_temperature;BME280_humidity;BME280_pressure;Samples;Min_cycle;Max_cycle;Signal;HPM_P1;HPM_P2
2023/07/06 00:00:53;;;;;;;5.35;4.25;;;13.40;99.90;;;;;;5055894;28;20044;-75
2023/07/06 00:03:19;;;;;;;7.00;4.05;;;13.60;99.90;;;;;;5051905;28;20397;-77
2023/07/06 00:05:45;;;;;;;5.65;4.22;;;13.70;99.90;;;;;;5050329;28;20045;-80
2023/07/06 00:08:12;;;;;;;7.60;4.22;;;13.80;99.90;;;;;;5048336;28;20056;-80
2023/07/06 00:10:39;;;;;;;7.50;4.55;;;13.40;99.90;;;;;;5050597;28;20036;-78
2023/07/06 00:13:09;;;;;;;5.97;3.97;;;13.80;99.90;;;;;;5034117;28;20145;-75
2023/07/06 00:15:35;;;;;;;9.38;4.85;;;13.40;99.90;;;;;;5047953;28;20439;-75
2023/07/06 00:18:03;;;;;;;10.75;4.93;;;13.30;99.90;;;;;;5030608;28;20047;-75
2023/07/06 00:20:33;;;;;;;8.40;4.47;;;13.80;99.90;;;;;;5064391;28;20045;-78
2023/07/06 00:22:59;;;;;;;5.13;4.47;;;13.30;99.90;;;;;;5047125;28;20095;-76
2023/07/06 00:25:28;;;;;;;8.98;4.57;;;13.40;99.90;;;;;;5049541;28;20684;-77
2023/07/06 00:27:54;;;;;;;7.13;4.65;;;13.40;99.90;;;;;;5050507;28;20041;-78
2023/07/06 00:30:30;;;;;;;8.55;5.15;;;13.60;99.90;;;;;;5030132;28;20037;-76
2023/07/06 00:32:59;;;;;;;6.85;4.88;;;13.30;99.90;;;;;;5045428;28;20040;-75
2023/07/06 00:35:25;;;;;;;6.47;5.15;;;13.80;99.90;;;;;;5022244;28;20512;-76
2023/07/06 00:37:51;;;;;;;8.27;5.05;;;13.60;99.90;;;;;;5029266;28;20060;-78
2023/07/06 00:40:17;;;;;;;8.65;5.38;;;13.70;99.90;;;;;;5033845;28;20446;-75
2023/07/06 00:42:43;;;;;;;7.38;5.40;;;13.50;99.90;;;;;;5046683;28;20049;-77
2023/07/06 00:45:10;;;;;;;8.23;5.85;;;13.70;99.90;;;;;;5030384;28;20530;-79
2023/07/06 00:47:46;;;;;;;8.15;6.05;;;13.40;99.90;;;;;;5046443;28;20665;-77
2023/07/06 00:50:20;;;;;;;7.53;5.22;;;13.80;99.90;;;;;;5044461;28;20044;-77
2023/07/06 00:52:51;;;;;;;6.80;5.27;;;14.00;99.90;;;;;;5046720;28;20060;-75
2023/07/06 00:55:25;;;;;;;8.57;5.30;;;13.80;99.90;;;;;;5029426;28;20045;-77
2023/07/06 00:57:55;;;;;;;7.88;6.25;;;13.50;99.90;;;;;;5048984;28;20831;-78
2023/07/06 01:00:21;;;;;;;8.68;5.63;;;13.60;99.90;;;;;;5048291;28;20045;-76
2023/07/06 01:02:53;;;;;;;8.02;5.78;;;13.60;99.90;;;;;;5016592;28;20048;-78
2023/07/06 01:05:21;;;;;;;9.27;5.95;;;13.90;99.90;;;;;;5038462;28;20596;-76
2023/07/06 01:07:48;;;;;;;9.77;5.72;;;13.50;99.90;;;;;;5032444;28;20052;-80
2023/07/06 01:10:14;;;;;;;8.52;6.03;;;13.30;99.90;;;;;;5048298;28;20059;-76
2023/07/06 01:12:40;;;;;;;8.18;5.93;;;13.60;99.90;;;;;;5000225;28;20426;-80
2023/07/06 01:15:06;;;;;;;10.77;6.32;;;13.70;99.90;;;;;;5028266;28;20128;-76
2023/07/06 01:17:55;;;;;;;9.13;6.82;;;13.60;99.90;;;;;;5031337;28;20045;-76
2023/07/06 01:20:25;;;;;;;11.52;7.10;;;13.90;99.90;;;;;;5042921;28;20170;-80
2023/07/06 01:23:16;;;;;;;9.75;6.30;;;13.90;99.90;;;;;;5032728;28;20036;-79
2023/07/06 01:26:07;;;;;;;11.27;6.63;;;14.00;99.90;;;;;;5033232;28;20069;-76
2023/07/06 01:28:42;;;;;;;8.15;6.25;;;13.50;99.90;;;;;;5051235;28;20041;-75
2023/07/06 01:31:44;;;;;;;10.20;6.72;;;13.40;99.90;;;;;;5030597;28;20612;-77
2023/07/06 01:34:46;;;;;;;12.02;6.72;;;13.60;99.90;;;;;;5025539;28;20516;-77
2023/07/06 01:37:22;;;;;;;8.85;6.68;;;13.90;99.90;;;;;;5048774;28;20080;-76
2023/07/06 01:39:48;;;;;;;12.80;7.50;;;13.70;99.90;;;;;;5038889;28;20182;-76
2023/07/06 01:42:31;;;;;;;12.77;7.30;;;13.30;99.90;;;;;;5029178;28;20119;-76
2023/07/06 01:45:06;;;;;;;11.90;7.45;;;13.60;99.90;;;;;;5058251;28;20094;-77
2023/07/06 01:47:37;;;;;;;10.05;7.88;;;13.90;99.90;;;;;;5026475;28;20095;-78
2023/07/06 01:50:06;;;;;;;10.30;6.93;;;13.90;99.90;;;;;;5031505;28;20436;-75
2023/07/06 01:53:00;;;;;;;13.35;8.15;;;13.90;99.90;;;;;;5056591;28;20361;-75
2023/07/06 01:55:31;;;;;;;12.77;8.57;;;13.50;99.90;;;;;;5051403;28;20041;-77
2023/07/06 01:58:29;;;;;;;11.70;8.18;;;14.40;99.90;;;;;;5037973;28;20098;-75
2023/07/06 02:01:06;;;;;;;12.52;8.73;;;14.20;99.90;;;;;;4976390;28;20465;-76
2023/07/06 02:03:32;;;;;;;10.57;8.00;;;14.30;99.90;;;;;;5054683;28;20048;-79
2023/07/06 02:05:58;;;;;;;15.25;10.00;;;14.20;99.90;;;;;;4998781;28;20041;-76
2023/07/06 02:08:24;;;;;;;11.23;9.05;;;13.70;99.90;;;;;;5036014;28;20041;-76
2023/07/06 02:10:50;;;;;;;11.60;8.63;;;14.20;99.90;;;;;;5048907;28;20072;-76
2023/07/06 02:13:16;;;;;;;12.95;9.95;;;13.80;99.90;;;;;;5035671;28;20067;-75
2023/07/06 02:15:42;;;;;;;14.00;9.32;;;14.10;99.90;;;;;;5029301;28;20034;-77
2023/07/06 02:18:08;;;;;;;14.63;8.75;;;14.20;99.90;;;;;;5035785;28;20047;-75
2023/07/06 02:20:34;;;;;;;12.93;8.93;;;14.80;99.90;;;;;;5012407;28;20094;-76
2023/07/06 02:23:00;;;;;;;12.60;8.98;;;14.60;99.90;;;;;;5030450;28;20049;-77
2023/07/06 02:25:26;;;;;;;12.35;8.93;;;14.30;99.90;;;;;;5053685;28;20547;-75
2023/07/06 02:27:51;;;;;;;12.45;9.05;;;14.30;99.90;;;;;;5033199;28;20106;-78
2023/07/06 02:30:17;;;;;;;12.57;8.88;;;14.10;99.90;;;;;;5029948;28;20037;-78
2023/07/06 02:32:43;;;;;;;14.88;9.82;;;14.80;99.90;;;;;;5046199;28;20086;-75
2023/07/06 02:35:10;;;;;;;18.25;9.50;;;14.20;99.90;;;;;;5031683;28;20037;-75
2023/07/06 02:37:38;;;;;;;13.85;9.23;;;15.10;99.90;;;;;;5029115;28;20055;-78
2023/07/06 02:40:13;;;;;;;11.15;8.40;;;14.40;99.90;;;;;;5034283;28;20487;-77
2023/07/06 02:42:42;;;;;;;13.50;9.32;;;14.20;99.90;;;;;;5047187;28;20067;-76
2023/07/06 02:45:09;;;;;;;17.13;8.98;;;14.20;99.90;;;;;;5044574;28;20041;-75
2023/07/06 02:47:36;;;;;;;17.30;9.23;;;15.30;99.90;;;;;;5042904;28;20098;-76
2023/07/06 02:50:03;;;;;;;12.60;9.18;;;14.60;99.90;;;;;;5029543;28;20044;-76
2023/07/06 02:52:29;;;;;;;18.35;9.27;;;15.00;99.90;;;;;;5045008;28;20041;-74
2023/07/06 02:54:54;;;;;;;11.93;9.38;;;14.50;99.90;;;;;;5030029;28;20353;-75
2023/07/06 02:57:20;;;;;;;14.00;9.93;;;14.30;99.90;;;;;;5051338;28;20040;-74
2023/07/06 02:59:46;;;;;;;12.52;9.27;;;14.50;99.90;;;;;;5032167;28;20037;-74
2023/07/06 03:02:12;;;;;;;15.18;8.70;;;15.20;99.90;;;;;;5013612;28;20083;-75
2023/07/06 03:04:38;;;;;;;13.20;8.65;;;15.40;99.90;;;;;;5027116;28;20044;-75
2023/07/06 03:07:05;;;;;;;15.98;9.00;;;14.30;99.90;;;;;;5029196;28;20044;-75
2023/07/06 03:09:32;;;;;;;10.10;8.63;;;14.50;99.90;;;;;;5031769;28;20033;-75
2023/07/06 03:11:59;;;;;;;15.23;9.13;;;15.00;99.90;;;;;;5032340;28;20129;-74
2023/07/06 03:14:25;;;;;;;14.27;8.85;;;15.00;99.90;;;;;;5032722;28;20032;-76
2023/07/06 03:16:54;;;;;;;13.55;8.57;;;15.10;99.90;;;;;;5049632;28;20035;-78
2023/07/06 03:19:21;;;;;;;13.20;8.27;;;14.90;99.90;;;;;;5029010;28;20053;-75
2023/07/06 03:21:47;;;;;;;12.98;8.43;;;14.50;99.90;;;;;;5032898;28;20077;-76
2023/07/06 03:24:13;;;;;;;14.32;7.88;;;15.20;99.90;;;;;;5033571;28;20076;-75
2023/07/06 03:26:41;;;;;;;11.40;8.05;;;14.90;99.90;;;;;;5047582;28;20041;-78
2023/07/06 03:29:08;;;;;;;9.60;7.90;;;14.30;99.90;;;;;;5045936;28;20131;-77
2023/07/06 03:31:35;;;;;;;14.00;8.57;;;14.90;99.90;;;;;;5048361;28;20037;-76
2023/07/06 03:34:02;;;;;;;11.18;8.35;;;14.30;99.90;;;;;;5049013;28;20394;-77
2023/07/06 03:36:28;;;;;;;12.25;7.60;;;14.90;99.90;;;;;;5014883;28;20037;-77
2023/07/06 03:38:57;;;;;;;12.63;7.90;;;14.60;99.90;;;;;;5030035;28;20070;-74
2023/07/06 03:41:22;;;;;;;10.40;8.15;;;14.70;99.90;;;;;;5015026;28;20057;-76
2023/07/06 03:43:48;;;;;;;9.30;8.13;;;14.00;99.90;;;;;;5027872;28;20045;-76
2023/07/06 03:46:14;;;;;;;10.02;7.75;;;14.30;99.90;;;;;;5047329;28;20108;-77
2023/07/06 03:48:40;;;;;;;11.18;8.07;;;15.00;99.90;;;;;;5045444;28;20123;-77
2023/07/06 03:51:07;;;;;;;12.95;8.32;;;14.90;99.90;;;;;;5034115;28;20094;-77
2023/07/06 03:53:35;;;;;;;8.35;6.47;;;14.80;99.90;;;;;;5046742;28;20059;-79
2023/07/06 03:56:02;;;;;;;12.50;8.20;;;14.50;99.90;;;;;;5048355;28;20067;-76
2023/07/06 03:58:29;;;;;;;10.02;8.02;;;14.60;99.90;;;;;;5045692;28;20128;-76
2023/07/06 04:00:58;;;;;;;11.65;7.50;;;14.80;99.90;;;;;;5048255;28;20119;-76
2023/07/06 04:03:27;;;;;;;12.77;8.35;;;14.40;99.90;;;;;;5032031;28;20389;-76
2023/07/06 04:05:54;;;;;;;10.27;7.55;;;14.20;99.90;;;;;;5048289;28;20041;-75
2023/07/06 04:08:21;;;;;;;11.48;7.32;;;14.30;99.90;;;;;;5044720;28;20428;-77
2023/07/06 04:10:48;;;;;;;10.70;8.10;;;14.10;99.90;;;;;;5048798;28;20138;-76
2023/07/06 04:13:14;;;;;;;9.18;7.88;;;14.20;99.90;;;;;;5045537;28;20045;-76
2023/07/06 04:15:46;;;;;;;9.88;7.60;;;14.80;99.90;;;;;;5037455;28;20135;-75
2023/07/06 04:18:15;;;;;;;8.90;7.45;;;14.20;99.90;;;;;;5047118;28;20043;-77
2023/07/06 04:20:41;;;;;;;14.70;7.75;;;14.70;99.90;;;;;;5046096;28;20048;-75
2023/07/06 04:23:09;;;;;;;9.70;7.50;;;15.40;99.90;;;;;;5048537;28;20094;-76
2023/07/06 04:25:35;;;;;;;11.55;8.07;;;14.40;99.90;;;;;;5030592;28;20533;-75
2023/07/06 04:28:05;;;;;;;10.10;8.23;;;14.90;99.90;;;;;;5045776;28;20033;-74
2023/07/06 04:30:33;;;;;;;10.38;7.20;;;15.50;99.90;;;;;;5037344;28;20190;-77
2023/07/06 04:33:00;;;;;;;9.65;7.25;;;14.90;99.90;;;;;;5026976;28;20040;-75
2023/07/06 04:35:26;;;;;;;12.25;7.20;;;14.80;99.90;;;;;;5021082;28;20044;-74
2023/07/06 04:37:53;;;;;;;12.93;7.63;;;14.80;99.90;;;;;;5029836;28;20064;-74
2023/07/06 04:40:21;;;;;;;10.60;7.03;;;15.60;99.90;;;;;;5053647;28;20053;-76
2023/07/06 04:42:51;;;;;;;13.27;7.35;;;15.50;99.90;;;;;;5030167;28;20041;-75
2023/07/06 04:45:18;;;;;;;11.55;6.88;;;15.30;99.90;;;;;;5047249;28;20083;-74
2023/07/06 04:47:44;;;;;;;10.30;7.50;;;15.10;99.90;;;;;;5014410;28;20037;-74
2023/07/06 04:50:17;;;;;;;13.00;6.95;;;16.00;99.90;;;;;;5037356;28;20605;-77
2023/07/06 04:52:46;;;;;;;8.75;6.72;;;14.90;99.90;;;;;;5026846;28;20369;-77
2023/07/06 04:55:12;;;;;;;11.18;6.68;;;15.60;99.90;;;;;;5019991;28;20040;-77
2023/07/06 04:57:39;;;;;;;9.07;7.40;;;14.90;99.90;;;;;;5044080;28;20559;-76
2023/07/06 05:00:18;;;;;;;12.65;6.97;;;15.10;99.90;;;;;;5016698;28;20036;-75
2023/07/06 05:02:45;;;;;;;11.82;7.50;;;14.90;99.90;;;;;;5029308;28;20120;-75
2023/07/06 05:05:12;;;;;;;12.18;7.15;;;15.40;99.90;;;;;;5054371;28;20082;-76
2023/07/06 05:07:39;;;;;;;11.52;7.18;;;15.40;99.90;;;;;;5043621;28;20045;-75
2023/07/06 05:10:06;;;;;;;12.35;7.50;;;16.00;99.90;;;;;;5045935;28;20045;-76
2023/07/06 05:12:32;;;;;;;10.75;6.95;;;15.80;99.90;;;;;;5030284;28;20039;-76
2023/07/06 05:14:57;;;;;;;15.45;8.13;;;15.80;99.90;;;;;;5027091;28;20554;-79
2023/07/06 05:17:24;;;;;;;11.43;7.15;;;15.80;99.90;;;;;;5045880;28;20035;-78
2023/07/06 05:19:50;;;;;;;14.52;8.55;;;16.20;99.90;;;;;;4993086;28;20047;-75
2023/07/06 05:22:18;;;;;;;12.00;7.50;;;16.20;99.90;;;;;;5012645;28;20044;-75
2023/07/06 05:24:45;;;;;;;13.40;8.07;;;15.00;99.90;;;;;;5032927;28;20367;-77
2023/07/06 05:27:11;;;;;;;12.02;7.65;;;16.40;99.90;;;;;;5032155;28;20037;-75
2023/07/06 05:29:36;;;;;;;14.10;8.20;;;15.90;99.90;;;;;;5043693;28;20049;-76
2023/07/06 05:32:02;;;;;;;13.65;8.60;;;15.80;99.90;;;;;;5013380;28;20040;-75
2023/07/06 05:34:28;;;;;;;15.48;8.13;;;16.50;99.90;;;;;;5013460;28;20500;-75
2023/07/06 05:36:53;;;;;;;14.43;8.93;;;15.40;99.90;;;;;;5034828;28;20071;-73
2023/07/06 05:39:19;;;;;;;15.40;9.18;;;16.40;99.90;;;;;;5048683;28;20275;-75
2023/07/06 05:41:45;;;;;;;14.10;7.95;;;16.70;99.90;;;;;;5039790;28;20043;-75
2023/07/06 05:44:11;;;;;;;10.68;7.57;;;16.40;99.90;;;;;;4997239;28;20049;-72
2023/07/06 05:46:36;;;;;;;15.88;8.30;;;16.40;99.90;;;;;;5045599;28;20389;-73
2023/07/06 05:49:02;;;;;;;14.48;8.98;;;16.30;99.90;;;;;;5026561;28;20099;-74
2023/07/06 05:51:28;;;;;;;16.27;8.10;;;16.00;99.90;;;;;;5031578;28;20079;-74
2023/07/06 05:53:54;;;;;;;13.77;8.25;;;16.80;99.90;;;;;;5006993;28;20047;-74
2023/07/06 05:56:21;;;;;;;14.48;8.45;;;16.20;99.90;;;;;;5047389;28;20551;-74
2023/07/06 05:58:47;;;;;;;13.30;8.00;;;16.10;99.90;;;;;;5012469;28;20511;-73
2023/07/06 06:01:13;;;;;;;13.70;8.45;;;16.10;99.90;;;;;;5011186;28;20588;-73
2023/07/06 06:03:40;;;;;;;11.77;7.78;;;16.20;99.90;;;;;;5025547;28;20086;-75
2023/07/06 06:06:06;;;;;;;13.27;7.95;;;17.00;99.90;;;;;;5029067;28;20041;-73
2023/07/06 06:08:32;;;;;;;16.17;8.82;;;16.50;99.90;;;;;;5046135;28;20043;-76
2023/07/06 06:11:00;;;;;;;11.45;7.90;;;16.10;99.90;;;;;;5046772;28;20602;-75
2023/07/06 06:13:27;;;;;;;14.90;8.02;;;15.90;99.90;;;;;;5047645;28;20454;-73
2023/07/06 06:15:53;;;;;;;15.65;8.38;;;17.40;99.90;;;;;;5043725;28;20094;-72
2023/07/06 06:18:18;;;;;;;13.23;8.40;;;17.40;99.90;;;;;;5057105;28;20062;-73
2023/07/06 06:20:44;;;;;;;18.60;8.45;;;16.90;99.90;;;;;;5044887;28;20404;-75
2023/07/06 06:23:10;;;;;;;14.88;8.88;;;17.70;99.90;;;;;;5014491;28;20412;-75
2023/07/06 06:25:38;;;;;;;18.67;8.90;;;17.80;99.90;;;;;;5013815;28;20447;-73
2023/07/06 06:28:05;;;;;;;12.48;8.02;;;16.70;99.90;;;;;;5014321;28;20130;-74
2023/07/06 06:30:31;;;;;;;17.30;8.50;;;17.70;99.90;;;;;;5011400;28;20037;-74
2023/07/06 06:32:57;;;;;;;20.40;8.95;;;16.90;99.90;;;;;;5013548;28;20464;-75
2023/07/06 06:35:29;;;;;;;17.58;9.20;;;16.80;99.90;;;;;;5043184;28;20044;-73
2023/07/06 06:37:57;;;;;;;14.23;8.90;;;17.40;99.90;;;;;;5030347;28;20060;-73
2023/07/06 06:40:24;;;;;;;16.23;8.55;;;18.50;99.90;;;;;;5013051;28;20037;-74
2023/07/06 06:42:50;;;;;;;15.95;8.45;;;18.20;99.90;;;;;;5046995;28;20045;-74
2023/07/06 06:45:18;;;;;;;15.48;8.30;;;18.20;99.90;;;;;;5026663;28;20044;-74
2023/07/06 06:47:44;;;;;;;16.55;8.30;;;17.90;99.90;;;;;;5044853;28;20042;-76
2023/07/06 06:50:14;;;;;;;18.65;8.63;;;17.70;99.90;;;;;;5050232;28;20044;-73
2023/07/06 06:52:43;;;;;;;11.15;6.80;;;18.00;99.90;;;;;;5028622;28;20456;-75
2023/07/06 06:55:10;;;;;;;13.48;6.93;;;18.30;99.90;;;;;;5051070;28;20037;-73
2023/07/06 06:57:36;;;;;;;9.75;6.55;;;19.60;99.90;;;;;;5052410;28;20041;-74
2023/07/06 07:00:06;;;;;;;13.32;7.20;;;18.00;99.90;;;;;;5037037;28;20048;-75
2023/07/06 07:02:32;;;;;;;13.60;7.30;;;18.30;99.90;;;;;;5049748;28;20529;-74
2023/07/06 07:05:00;;;;;;;13.80;7.00;;;19.20;99.90;;;;;;5055249;28;20048;-75
2023/07/06 07:07:27;;;;;;;12.60;6.18;;;19.50;99.90;;;;;;5048978;28;20128;-77
2023/07/06 07:09:53;;;;;;;11.00;6.95;;;18.60;99.90;;;;;;5049781;28;20033;-74
2023/07/06 07:12:19;;;;;;;14.30;6.93;;;19.80;99.90;;;;;;5051019;28;20737;-76
2023/07/06 07:14:45;;;;;;;8.43;5.93;;;19.90;99.90;;;;;;5050677;28;20045;-77
2023/07/06 07:17:13;;;;;;;11.88;6.10;;;19.80;99.90;;;;;;5033346;28;20041;-75
2023/07/06 07:19:39;;;;;;;12.73;5.82;;;19.70;99.90;;;;;;5049751;28;20080;-76
2023/07/06 07:22:06;;;;;;;11.25;6.07;;;20.60;99.90;;;;;;5048136;28;20036;-75
2023/07/06 07:24:32;;;;;;;10.77;6.35;;;19.70;99.90;;;;;;5046862;28;20052;-74
2023/07/06 07:26:59;;;;;;;9.75;4.85;;;19.40;99.90;;;;;;5034313;28;20037;-75
2023/07/06 07:29:25;;;;;;;11.48;6.00;;;19.70;99.90;;;;;;5032959;28;20053;-77
2023/07/06 07:31:51;;;;;;;9.50;5.60;;;19.40;99.90;;;;;;5048473;28;20096;-76
2023/07/06 07:34:17;;;;;;;9.82;5.10;;;19.40;99.90;;;;;;5017617;28;20110;-76
2023/07/06 07:36:47;;;;;;;10.18;4.57;;;20.30;99.90;;;;;;5033199;28;20060;-77
2023/07/06 07:39:16;;;;;;;10.15;5.32;;;20.40;99.90;;;;;;5050419;28;20041;-75
2023/07/06 07:41:45;;;;;;;11.45;5.55;;;20.30;99.90;;;;;;5047299;28;20045;-76
2023/07/06 07:44:11;;;;;;;11.63;5.20;;;20.30;99.90;;;;;;5033942;28;20045;-76
2023/07/06 07:46:37;;;;;;;8.48;4.30;;;20.00;99.90;;;;;;5049051;28;20094;-79
2023/07/06 07:49:03;;;;;;;10.90;5.07;;;20.20;99.90;;;;;;5053778;28;20032;-75
2023/07/06 07:51:31;;;;;;;9.07;3.70;;;20.50;99.90;;;;;;5057268;28;20499;-75
2023/07/06 07:53:57;;;;;;;7.10;4.35;;;20.50;99.90;;;;;;5054401;28;20044;-76
2023/07/06 07:56:25;;;;;;;6.95;4.15;;;20.30;99.90;;;;;;5035776;28;20392;-77
2023/07/06 07:58:51;;;;;;;8.65;4.00;;;20.20;99.90;;;;;;5033609;28;20070;-75
2023/07/06 08:01:20;;;;;;;6.15;3.00;;;20.20;99.90;;;;;;5062011;28;20036;-76
2023/07/06 08:03:46;;;;;;;5.95;3.30;;;20.20;99.90;;;;;;5050152;28;20041;-79
2023/07/06 08:06:16;;;;;;;5.28;3.03;;;20.40;99.90;;;;;;5055437;28;20037;-76
2023/07/06 08:08:43;;;;;;;8.23;2.80;;;20.20;99.90;;;;;;5034438;28;20068;-76
2023/07/06 08:11:15;;;;;;;6.38;3.38;;;20.50;99.90;;;;;;5016007;28;20049;-76
2023/07/06 08:13:41;;;;;;;4.63;2.42;;;20.50;99.90;;;;;;5047064;28;20516;-77
2023/07/06 08:16:08;;;;;;;6.55;3.05;;;20.40;99.90;;;;;;5016270;28;20037;-76
2023/07/06 08:18:34;;;;;;;4.22;2.55;;;20.80;99.90;;;;;;5034925;28;20037;-76
2023/07/06 08:21:01;;;;;;;5.57;2.70;;;21.10;99.90;;;;;;5039628;28;20049;-79
2023/07/06 08:23:28;;;;;;;3.28;1.90;;;20.70;99.90;;;;;;5039027;28;20040;-76
2023/07/06 08:25:54;;;;;;;4.72;2.47;;;20.50;99.90;;;;;;5035736;28;20135;-77
2023/07/06 08:28:31;;;;;;;8.23;2.42;;;20.90;99.90;;;;;;5048100;28;20420;-77
2023/07/06 08:31:02;;;;;;;4.22;2.00;;;21.20;99.90;;;;;;5047088;28;20064;-77
2023/07/06 08:33:30;;;;;;;4.03;1.90;;;21.40;99.90;;;;;;5049448;28;20037;-78
2023/07/06 08:35:56;;;;;;;4.95;1.90;;;21.60;99.90;;;;;;5029813;28;20072;-76
2023/07/06 08:38:22;;;;;;;5.18;2.13;;;21.20;99.90;;;;;;5050514;28;20474;-78
2023/07/06 08:40:51;;;;;;;6.53;2.38;;;21.00;99.90;;;;;;5046209;28;20044;-78
2023/07/06 08:43:24;;;;;;;4.35;2.15;;;21.10;99.90;;;;;;5047119;28;20049;-77
2023/07/06 08:45:58;;;;;;;5.03;2.17;;;21.00;99.90;;;;;;5048572;28;20049;-77
2023/07/06 08:48:26;;;;;;;5.35;2.30;;;20.80;99.90;;;;;;5049099;28;20097;-79
2023/07/06 08:51:01;;;;;;;2.65;1.83;;;21.00;99.90;;;;;;5047516;28;20493;-76
2023/07/06 08:53:32;;;;;;;4.55;2.00;;;21.10;99.90;;;;;;5032575;28;20048;-77
2023/07/06 08:56:01;;;;;;;7.00;2.30;;;21.10;99.90;;;;;;5047000;28;20456;-78
2023/07/06 08:58:37;;;;;;;4.10;2.25;;;21.00;99.90;;;;;;5047501;28;20040;-76
2023/07/06 09:01:10;;;;;;;5.18;1.98;;;21.00;99.90;;;;;;5055516;28;20493;-78
2023/07/06 09:03:44;;;;;;;4.05;2.10;;;20.60;99.90;;;;;;5057221;28;20377;-77
2023/07/06 09:06:18;;;;;;;4.33;2.37;;;20.60;99.90;;;;;;5048785;28;20056;-77
2023/07/06 09:08:46;;;;;;;4.95;2.50;;;20.40;99.90;;;;;;5042978;28;20053;-75
2023/07/06 09:11:15;;;;;;;3.25;2.28;;;20.40;99.90;;;;;;5030835;28;20041;-77
2023/07/06 09:13:46;;;;;;;8.18;2.95;;;20.30;99.90;;;;;;5031183;28;20098;-76
2023/07/06 09:16:15;;;;;;;8.10;2.95;;;20.30;99.90;;;;;;5030121;28;20037;-76
2023/07/06 09:18:42;;;;;;;5.70;2.70;;;20.20;99.90;;;;;;5049157;28;20097;-76
2023/07/06 09:21:08;;;;;;;5.55;2.92;;;20.50;99.90;;;;;;5034588;28;20142;-78
2023/07/06 09:23:34;;;;;;;6.60;2.30;;;20.70;99.90;;;;;;5046621;28;20079;-75
2023/07/06 09:26:06;;;;;;;4.47;2.30;;;21.00;99.90;;;;;;5003711;28;20091;-78
2023/07/06 09:28:32;;;;;;;5.00;2.67;;;21.10;99.90;;;;;;5051024;28;20119;-79
2023/07/06 09:31:08;;;;;;;5.53;2.40;;;21.20;99.90;;;;;;5046232;28;20120;-76
2023/07/06 09:33:34;;;;;;;4.38;2.50;;;21.00;99.90;;;;;;5048252;28;20418;-78
2023/07/06 09:36:00;;;;;;;7.05;1.90;;;21.00;99.90;;;;;;5030184;28;20120;-77
2023/07/06 09:38:27;;;;;;;4.57;2.20;;;20.80;99.90;;;;;;5046328;28;20052;-78
2023/07/06 09:40:54;;;;;;;5.05;2.30;;;21.40;99.90;;;;;;5046886;28;20810;-78
2023/07/06 09:43:27;;;;;;;3.80;1.80;;;21.90;99.90;;;;;;5044610;28;20661;-67
2023/07/06 09:45:54;;;;;;;3.97;1.85;;;22.40;99.90;;;;;;5046252;28;20041;-67
2023/07/06 09:48:32;;;;;;;4.63;1.70;;;22.80;99.90;;;;;;5031310;28;20163;-66
2023/07/06 09:51:27;;;;;;;4.35;1.95;;;22.80;99.90;;;;;;5030859;28;20048;-67
2023/07/06 09:53:58;;;;;;;;;;;23.40;99.90;;;;;;5043722;28;20585;-65
2023/07/06 09:56:24;;;;;;;2.40;1.60;;;24.10;99.90;;;;;;5048427;28;20285;-77
2023/07/06 09:58:51;;;;;;;4.07;2.03;;;24.60;99.90;;;;;;5030840;28;20107;-79
2023/07/06 10:01:43;;;;;;;3.15;1.80;;;25.00;99.90;;;;;;5047868;28;20126;-77
2023/07/06 10:04:39;;;;;;;7.53;1.80;;;24.60;99.90;;;;;;5030820;28;20044;-78
2023/07/06 10:07:23;;;;;;;3.80;1.80;;;24.40;99.90;;;;;;5046762;28;20053;-78
2023/07/06 10:10:03;;;;;;;2.55;1.70;;;23.30;99.90;;;;;;5043885;28;20048;-77
2023/07/06 10:12:34;;;;;;;3.38;1.60;;;22.90;99.90;;;;;;5030849;28;20059;-77
2023/07/06 10:15:05;;;;;;;5.18;2.00;;;23.20;99.90;;;;;;5047524;28;20508;-78
2023/07/06 10:17:35;;;;;;;2.42;1.42;;;23.80;99.90;;;;;;5044477;28;20037;-78
2023/07/06 10:20:09;;;;;;;4.35;1.60;;;23.60;99.90;;;;;;5016361;28;20469;-77
2023/07/06 10:22:56;;;;;;;6.20;2.17;;;24.10;99.90;;;;;;5028903;28;20045;-78
2023/07/06 10:25:36;;;;;;;2.58;1.52;;;23.80;99.90;;;;;;5030767;28;20033;-77
2023/07/06 10:28:11;;;;;;;8.77;1.42;;;24.70;99.90;;;;;;5030559;28;20032;-79
2023/07/06 10:30:44;;;;;;;4.63;1.88;;;24.30;10.10;;;;;;5037265;28;20632;-78
2023/07/06 10:33:17;;;;;;;3.70;1.30;;;24.20;98.80;;;;;;5027379;28;20046;-79
2023/07/06 10:35:50;;;;;;;3.70;1.20;;;23.90;99.90;;;;;;5047121;28;20087;-78
2023/07/06 10:38:16;;;;;;;3.93;1.60;;;23.80;99.90;;;;;;5047245;28;20057;-78
2023/07/06 10:40:42;;;;;;;2.88;1.75;;;23.80;99.90;;;;;;5060125;28;20318;-77
2023/07/06 10:43:14;;;;;;;7.30;1.40;;;24.10;99.90;;;;;;5040374;28;20076;-78
2023/07/06 10:45:54;;;;;;;2.50;1.60;;;24.70;99.90;;;;;;5030039;28;20045;-77
2023/07/06 10:48:34;;;;;;;3.10;1.40;;;24.80;55.20;;;;;;5047456;28;20052;-77
2023/07/06 10:51:22;;;;;;;2.97;1.50;;;24.70;5.00;;;;;;5039715;28;20508;-77
2023/07/06 10:54:02;;;;;;;2.10;1.40;;;24.40;1.00;;;;;;5027940;28;20041;-79
2023/07/06 10:56:31;;;;;;;2.95;1.38;;;24.30;74.90;;;;;;5028846;28;20040;-78
2023/07/06 10:59:00;;;;;;;3.33;1.25;;;24.40;34.10;;;;;;5014228;28;20071;-79
2023/07/06 11:01:40;;;;;;;2.65;1.25;;;24.60;2.60;;;;;;5046267;28;20045;-78
2023/07/06 11:04:43;;;;;;;3.50;1.45;;;25.20;1.00;;;;;;5025267;28;20057;-80
2023/07/06 11:07:42;;;;;;;1.73;1.27;;;25.40;99.90;;;;;;5052220;28;20392;-78
2023/07/06 11:10:13;;;;;;;1.52;1.00;;;25.10;99.90;;;;;;5029976;28;20144;-80
2023/07/06 11:12:57;;;;;;;2.65;1.10;;;25.20;1.00;;;;;;5028671;28;20086;-80
2023/07/06 11:15:47;;;;;;;2.97;1.10;;;25.10;99.90;;;;;;5030434;28;20059;-79
2023/07/06 11:18:21;;;;;;;2.05;1.10;;;25.50;1.00;;;;;;5026986;28;20041;-80
2023/07/06 11:20:54;;;;;;;2.53;1.10;;;25.70;1.00;;;;;;5028704;28;20044;-79
2023/07/06 11:23:45;;;;;;;2.60;1.20;;;25.90;99.90;;;;;;5046627;28;20569;-79
2023/07/06 11:26:47;;;;;;;1.92;1.15;;;26.00;99.90;;;;;;5023733;28;20037;-80
2023/07/06 11:29:14;;;;;;;2.63;1.23;;;25.90;99.90;;;;;;5037340;28;20120;-80
2023/07/06 11:32:04;;;;;;;2.38;1.20;;;26.00;99.90;;;;;;5031263;28;20464;-80
2023/07/06 11:34:45;;;;;;;1.75;1.10;;;25.90;99.90;;;;;;5046726;28;20037;-80
2023/07/06 11:37:17;;;;;;;2.50;1.23;;;26.40;1.00;;;;;;5049658;28;20051;-80
2023/07/06 11:40:24;;;;;;;2.33;1.17;;;26.00;1.00;;;;;;5065094;28;20445;-80
2023/07/06 13:47:28;;;;;;;2.20;1.45;;;24.50;99.90;;;;;;3243035;26;20045;-79
2023/07/06 13:49:56;;;;;;;2.50;1.45;;;24.70;99.90;;;;;;5072772;28;20119;-80
2023/07/06 13:52:21;;;;;;;1.67;1.20;;;24.30;99.90;;;;;;5059485;28;20214;-79
2023/07/06 13:54:47;;;;;;;2.00;1.23;;;24.80;1.00;;;;;;5076773;28;20030;-79
2023/07/06 13:57:13;;;;;;;2.45;1.25;;;25.30;99.90;;;;;;5058764;28;20096;-81
2023/07/06 13:59:39;;;;;;;2.10;1.25;;;25.60;1.00;;;;;;5044033;28;20046;-81
2023/07/06 14:02:06;;;;;;;4.13;1.30;;;26.30;1.00;;;;;;5059921;28;20263;-80
2023/07/06 14:04:33;;;;;;;4.15;1.10;;;26.80;99.90;;;;;;5045682;28;20375;-81
2023/07/06 14:06:59;;;;;;;2.33;1.30;;;27.30;89.70;;;;;;5046404;28;20033;-82
2023/07/06 14:09:26;;;;;;;2.65;1.40;;;27.30;99.90;;;;;;5069692;28;20097;-81
2023/07/06 14:11:52;;;;;;;4.90;1.30;;;27.20;99.90;;;;;;5071897;28;20028;-81
2023/07/06 14:14:18;;;;;;;3.40;1.60;;;27.20;99.90;;;;;;5063300;28;20040;-80
2023/07/06 14:16:45;;;;;;;2.20;1.30;;;27.30;99.90;;;;;;5084021;28;20085;-80
2023/07/06 14:19:12;;;;;;;3.70;1.10;;;26.80;1.00;;;;;;5081257;28;20078;-82
2023/07/06 14:21:38;;;;;;;2.00;1.02;;;26.10;99.90;;;;;;5084025;28;20248;-81
2023/07/06 14:24:05;;;;;;;2.83;1.60;;;25.80;1.00;;;;;;5060499;28;20345;-80
2023/07/06 14:26:31;;;;;;;3.25;1.40;;;25.40;1.00;;;;;;5061793;28;20267;-80
2023/07/06 14:28:57;;;;;;;2.22;1.50;;;25.40;1.00;;;;;;5034566;28;20041;-81
2023/07/06 14:31:25;;;;;;;3.03;1.30;;;25.20;99.90;;;;;;5077819;28;20028;-81
2023/07/06 14:33:50;;;;;;;2.35;1.50;;;25.10;1.00;;;;;;5078057;28;20032;-79
2023/07/06 14:36:17;;;;;;;3.28;1.40;;;25.10;1.00;;;;;;5061699;28;20096;-81
2023/07/06 14:38:43;;;;;;;2.83;1.40;;;25.20;99.90;;;;;;5077978;28;20066;-81
2023/07/06 14:41:09;;;;;;;3.15;1.38;;;25.60;99.90;;;;;;5060766;28;20039;-80
2023/07/06 14:43:35;;;;;;;2.30;1.30;;;26.20;80.70;;;;;;5061594;28;20032;-79
2023/07/06 14:46:02;;;;;;;2.00;1.30;;;26.00;99.90;;;;;;5061389;28;20136;-79
2023/07/06 14:48:29;;;;;;;3.35;1.60;;;25.80;1.00;;;;;;5057830;28;20076;-80
2023/07/06 14:51:05;;;;;;;4.50;1.70;;;25.30;99.90;;;;;;5040845;28;20031;-80
2023/07/06 14:53:31;;;;;;;2.03;1.20;;;25.10;1.00;;;;;;5061061;28;20036;-81
2023/07/06 14:55:57;;;;;;;4.32;1.42;;;24.90;15.20;;;;;;5044484;28;20036;-80
2023/07/06 14:58:23;;;;;;;3.88;1.30;;;24.90;99.90;;;;;;5061364;28;20041;-80
2023/07/06 15:00:49;;;;;;;3.13;1.42;;;24.70;99.90;;;;;;5060938;28;20074;-79